CEB4138 RPVM-RPLL
Flight info
| Callsign | CEB4138 |
|---|---|
| Flight time | 1h 2m |
| Altitude | 31000 |
| Route | PARA4P PARAO ROX LAIYA LAIY5R |
| Aircraft | A20N/L-SDE3GHIJ2J3J5M1RVWXYZ/C |
Departure
| Time | 2026-05-06 14:54 |
|---|---|
| Airport | Mactan Cebu International Airport (RPVM) |
Arrival
| Time | 2026-05-06 15:56 |
|---|---|
| Airport | Ninoy Aquino International Airport (RPLL) |
| Time | Latitude | Longitude | Altitude | Speed | Heading |
|---|---|---|---|---|---|
| 2026-05-06 14:42 | 10.31503 | 123.97932 | 41 ft | 0 kts | 315° |
| 2026-05-06 14:45 | 10.31489 | 123.97946 | 41 ft | 3 kts | 315° |
| 2026-05-06 14:45 | 10.31470 | 123.97965 | 41 ft | 3 kts | 315° |
| 2026-05-06 14:46 | 10.31451 | 123.97984 | 40 ft | 3 kts | 315° |
| 2026-05-06 14:46 | 10.31437 | 123.97999 | 40 ft | 0 kts | 315° |
| 2026-05-06 14:49 | 10.31438 | 123.97997 | 40 ft | 0 kts | 283° |
| 2026-05-06 14:49 | 10.31433 | 123.97978 | 40 ft | 4 kts | 245° |
| 2026-05-06 14:49 | 10.31403 | 123.97944 | 39 ft | 8 kts | 225° |
| 2026-05-06 14:49 | 10.31347 | 123.97902 | 40 ft | 10 kts | 192° |
| 2026-05-06 14:50 | 10.31274 | 123.97945 | 38 ft | 14 kts | 135° |
| 2026-05-06 14:50 | 10.31190 | 123.97963 | 36 ft | 12 kts | 250° |
| 2026-05-06 14:50 | 10.31121 | 123.97900 | 36 ft | 14 kts | 222° |
| 2026-05-06 14:50 | 10.31043 | 123.97822 | 36 ft | 17 kts | 224° |
| 2026-05-06 14:51 | 10.30951 | 123.97729 | 34 ft | 19 kts | 226° |
| 2026-05-06 14:51 | 10.30846 | 123.97623 | 31 ft | 22 kts | 225° |
| 2026-05-06 14:51 | 10.30726 | 123.97504 | 26 ft | 25 kts | 225° |
| 2026-05-06 14:51 | 10.30595 | 123.97373 | 25 ft | 26 kts | 224° |
| 2026-05-06 14:52 | 10.30461 | 123.97239 | 23 ft | 27 kts | 225° |
| 2026-05-06 14:52 | 10.30339 | 123.97173 | 22 ft | 11 kts | 155° |
| 2026-05-06 14:52 | 10.30276 | 123.97178 | 22 ft | 2 kts | 140° |
| 2026-05-06 14:52 | 10.30280 | 123.97187 | 22 ft | 0 kts | 50° |
| 2026-05-06 14:53 | 10.30282 | 123.97189 | 22 ft | 0 kts | 50° |
| 2026-05-06 14:53 | 10.30302 | 123.97213 | 22 ft | 26 kts | 50° |
| 2026-05-06 14:53 | 10.30649 | 123.97569 | 26 ft | 111 kts | 45° |
| 2026-05-06 14:53 | 10.31332 | 123.98259 | 279 ft | 152 kts | 46° |
| 2026-05-06 14:54 | 10.32111 | 123.99051 | 901 ft | 164 kts | 46° |
| 2026-05-06 14:54 | 10.32907 | 123.99854 | 1754 ft | 165 kts | 45° |
| 2026-05-06 14:54 | 10.33735 | 124.00691 | 2464 ft | 178 kts | 46° |
| 2026-05-06 14:54 | 10.34692 | 124.01585 | 3137 ft | 195 kts | 33° |
| 2026-05-06 14:55 | 10.36042 | 124.01858 | 3780 ft | 213 kts | 348° |
| 2026-05-06 14:55 | 10.37362 | 124.01099 | 4492 ft | 229 kts | 317° |
| 2026-05-06 14:55 | 10.38565 | 123.99925 | 5201 ft | 252 kts | 315° |
| 2026-05-06 14:55 | 10.39870 | 123.98666 | 6095 ft | 268 kts | 317° |
| 2026-05-06 14:56 | 10.41288 | 123.97397 | 7110 ft | 280 kts | 319° |
| 2026-05-06 14:56 | 10.42770 | 123.96142 | 8305 ft | 284 kts | 320° |
| 2026-05-06 14:56 | 10.44318 | 123.94875 | 9510 ft | 288 kts | 321° |
| 2026-05-06 14:56 | 10.45882 | 123.93619 | 10500 ft | 290 kts | 321° |
| 2026-05-06 14:57 | 10.47474 | 123.92354 | 11245 ft | 297 kts | 321° |
| 2026-05-06 14:57 | 10.49139 | 123.91040 | 12080 ft | 302 kts | 321° |
| 2026-05-06 14:57 | 10.50788 | 123.89744 | 12914 ft | 305 kts | 321° |
| 2026-05-06 14:57 | 10.52495 | 123.88404 | 13746 ft | 309 kts | 321° |
| 2026-05-06 14:58 | 10.54181 | 123.87082 | 14540 ft | 313 kts | 321° |
| 2026-05-06 14:58 | 10.55926 | 123.85714 | 15334 ft | 316 kts | 321° |
| 2026-05-06 14:58 | 10.57651 | 123.84361 | 16094 ft | 320 kts | 321° |
| 2026-05-06 14:58 | 10.59422 | 123.82973 | 16846 ft | 323 kts | 321° |
| 2026-05-06 14:59 | 10.61220 | 123.81564 | 17581 ft | 327 kts | 321° |
| 2026-05-06 14:59 | 10.63019 | 123.80154 | 18289 ft | 330 kts | 321° |
| 2026-05-06 14:59 | 10.64830 | 123.78733 | 18979 ft | 333 kts | 321° |
| 2026-05-06 14:59 | 10.66693 | 123.77272 | 19666 ft | 337 kts | 321° |
| 2026-05-06 15:00 | 10.68556 | 123.75811 | 20337 ft | 340 kts | 321° |
| 2026-05-06 15:00 | 10.70433 | 123.74337 | 21012 ft | 343 kts | 321° |
| 2026-05-06 15:00 | 10.72312 | 123.72863 | 21662 ft | 346 kts | 321° |
| 2026-05-06 15:00 | 10.74225 | 123.71362 | 22298 ft | 349 kts | 321° |
| 2026-05-06 15:01 | 10.76178 | 123.69830 | 22933 ft | 353 kts | 321° |
| 2026-05-06 15:01 | 10.78118 | 123.68307 | 23545 ft | 356 kts | 321° |
| 2026-05-06 15:01 | 10.80075 | 123.66770 | 24133 ft | 359 kts | 321° |
| 2026-05-06 15:01 | 10.82084 | 123.65191 | 24730 ft | 362 kts | 321° |
| 2026-05-06 15:02 | 10.84079 | 123.63624 | 25332 ft | 364 kts | 321° |
| 2026-05-06 15:02 | 10.86056 | 123.62071 | 26029 ft | 363 kts | 321° |
| 2026-05-06 15:02 | 10.88049 | 123.60503 | 26734 ft | 360 kts | 321° |
| 2026-05-06 15:02 | 10.90037 | 123.58941 | 27405 ft | 359 kts | 321° |
| 2026-05-06 15:03 | 10.91999 | 123.57398 | 28033 ft | 357 kts | 321° |
| 2026-05-06 15:03 | 10.93968 | 123.55848 | 28634 ft | 356 kts | 321° |
| 2026-05-06 15:03 | 10.95918 | 123.54313 | 29203 ft | 355 kts | 321° |
| 2026-05-06 15:03 | 10.97862 | 123.52783 | 29718 ft | 355 kts | 321° |
| 2026-05-06 15:04 | 10.99829 | 123.51240 | 30158 ft | 356 kts | 322° |
| 2026-05-06 15:04 | 11.01845 | 123.49780 | 30555 ft | 359 kts | 324° |
| 2026-05-06 15:04 | 11.03904 | 123.48344 | 30914 ft | 361 kts | 324° |
| 2026-05-06 15:05 | 11.08086 | 123.45435 | 30999 ft | 363 kts | 324° |
| 2026-05-06 15:05 | 11.12262 | 123.42526 | 31001 ft | 364 kts | 324° |
| 2026-05-06 15:06 | 11.16441 | 123.39606 | 31002 ft | 363 kts | 324° |
| 2026-05-06 15:06 | 11.20627 | 123.36681 | 31002 ft | 363 kts | 324° |
| 2026-05-06 15:07 | 11.24785 | 123.33775 | 31003 ft | 363 kts | 324° |
| 2026-05-06 15:07 | 11.28943 | 123.30867 | 31003 ft | 362 kts | 324° |
| 2026-05-06 15:08 | 11.33089 | 123.27967 | 31003 ft | 362 kts | 324° |
| 2026-05-06 15:08 | 11.37264 | 123.25047 | 31003 ft | 362 kts | 324° |
| 2026-05-06 15:09 | 11.41409 | 123.22145 | 31003 ft | 362 kts | 324° |
| 2026-05-06 15:09 | 11.45558 | 123.19239 | 31003 ft | 362 kts | 324° |
| 2026-05-06 15:10 | 11.49823 | 123.16250 | 31008 ft | 383 kts | 324° |
| 2026-05-06 15:10 | 11.52079 | 123.14669 | 31007 ft | 396 kts | 324° |
| 2026-05-06 15:10 | 11.54373 | 123.13065 | 31006 ft | 408 kts | 324° |
| 2026-05-06 15:10 | 11.56744 | 123.11399 | 31007 ft | 419 kts | 324° |
| 2026-05-06 15:11 | 11.59166 | 123.09701 | 31005 ft | 425 kts | 324° |
| 2026-05-06 15:11 | 11.61651 | 123.07960 | 31003 ft | 436 kts | 324° |
| 2026-05-06 15:11 | 11.64168 | 123.06196 | 31003 ft | 445 kts | 324° |
| 2026-05-06 15:12 | 11.69383 | 123.02538 | 31002 ft | 461 kts | 324° |
| 2026-05-06 15:12 | 11.74706 | 122.98802 | 31002 ft | 465 kts | 324° |
| 2026-05-06 15:13 | 11.80037 | 122.95060 | 31003 ft | 465 kts | 324° |
| 2026-05-06 15:13 | 11.85354 | 122.91325 | 31003 ft | 465 kts | 324° |
| 2026-05-06 15:14 | 11.90710 | 122.87560 | 31003 ft | 465 kts | 324° |
| 2026-05-06 15:14 | 11.96027 | 122.83818 | 31003 ft | 464 kts | 325° |
| 2026-05-06 15:15 | 12.01352 | 122.80070 | 31003 ft | 464 kts | 325° |
| 2026-05-06 15:15 | 12.06661 | 122.76331 | 31003 ft | 464 kts | 325° |
| 2026-05-06 15:16 | 12.11993 | 122.72575 | 31003 ft | 464 kts | 325° |
| 2026-05-06 15:16 | 12.17308 | 122.68827 | 31003 ft | 465 kts | 324° |
| 2026-05-06 15:17 | 12.22651 | 122.65058 | 31003 ft | 465 kts | 324° |
| 2026-05-06 15:17 | 12.27974 | 122.61301 | 31003 ft | 465 kts | 324° |
| 2026-05-06 15:18 | 12.33296 | 122.57539 | 31003 ft | 466 kts | 324° |
| 2026-05-06 15:18 | 12.38661 | 122.53751 | 31003 ft | 466 kts | 324° |
| 2026-05-06 15:19 | 12.43997 | 122.49988 | 31002 ft | 467 kts | 324° |
| 2026-05-06 15:19 | 12.49358 | 122.46200 | 31003 ft | 467 kts | 324° |
| 2026-05-06 15:20 | 12.54700 | 122.42419 | 31003 ft | 467 kts | 324° |
| 2026-05-06 15:20 | 12.60026 | 122.38648 | 31003 ft | 467 kts | 324° |
| 2026-05-06 15:21 | 12.65401 | 122.34838 | 31003 ft | 467 kts | 324° |
| 2026-05-06 15:21 | 12.70719 | 122.31068 | 30794 ft | 460 kts | 324° |
| 2026-05-06 15:21 | 12.73321 | 122.29223 | 30548 ft | 446 kts | 324° |
| 2026-05-06 15:22 | 12.75848 | 122.27430 | 30300 ft | 434 kts | 324° |
| 2026-05-06 15:22 | 12.78307 | 122.25686 | 30052 ft | 423 kts | 324° |
| 2026-05-06 15:22 | 12.80691 | 122.23993 | 29802 ft | 412 kts | 324° |
| 2026-05-06 15:22 | 12.83014 | 122.22343 | 29552 ft | 402 kts | 324° |
| 2026-05-06 15:23 | 12.85296 | 122.20722 | 29300 ft | 393 kts | 324° |
| 2026-05-06 15:23 | 12.87508 | 122.19152 | 29050 ft | 384 kts | 324° |
| 2026-05-06 15:23 | 12.89685 | 122.17606 | 28799 ft | 376 kts | 324° |
| 2026-05-06 15:23 | 12.91813 | 122.16091 | 28549 ft | 369 kts | 324° |
| 2026-05-06 15:24 | 12.93905 | 122.14603 | 28304 ft | 369 kts | 324° |
| 2026-05-06 15:24 | 12.96014 | 122.13102 | 28056 ft | 370 kts | 324° |
| 2026-05-06 15:24 | 12.98151 | 122.11581 | 27805 ft | 371 kts | 324° |
| 2026-05-06 15:24 | 13.00255 | 122.10085 | 27559 ft | 371 kts | 324° |
| 2026-05-06 15:25 | 13.02381 | 122.08572 | 27303 ft | 363 kts | 324° |
| 2026-05-06 15:25 | 13.04428 | 122.07116 | 27056 ft | 360 kts | 324° |
| 2026-05-06 15:25 | 13.06496 | 122.05643 | 26807 ft | 360 kts | 324° |
| 2026-05-06 15:25 | 13.08564 | 122.04170 | 26558 ft | 361 kts | 324° |
| 2026-05-06 15:26 | 13.10620 | 122.02707 | 26311 ft | 361 kts | 324° |
| 2026-05-06 15:26 | 13.12681 | 122.01238 | 26064 ft | 362 kts | 324° |
| 2026-05-06 15:26 | 13.14764 | 121.99753 | 25813 ft | 361 kts | 324° |
| 2026-05-06 15:26 | 13.16820 | 121.98288 | 25566 ft | 362 kts | 324° |
| 2026-05-06 15:27 | 13.18912 | 121.96797 | 25315 ft | 362 kts | 324° |
| 2026-05-06 15:27 | 13.20962 | 121.95337 | 25069 ft | 363 kts | 324° |
| 2026-05-06 15:27 | 13.23060 | 121.93842 | 24817 ft | 362 kts | 324° |
| 2026-05-06 15:27 | 13.25105 | 121.92384 | 24570 ft | 360 kts | 324° |
| 2026-05-06 15:28 | 13.27158 | 121.90920 | 24321 ft | 359 kts | 324° |
| 2026-05-06 15:28 | 13.29208 | 121.89458 | 24071 ft | 358 kts | 324° |
| 2026-05-06 15:28 | 13.31267 | 121.87988 | 23820 ft | 357 kts | 324° |
| 2026-05-06 15:28 | 13.33301 | 121.86536 | 23571 ft | 355 kts | 324° |
| 2026-05-06 15:29 | 13.35322 | 121.85094 | 23322 ft | 354 kts | 324° |
| 2026-05-06 15:29 | 13.37349 | 121.83646 | 23080 ft | 353 kts | 324° |
| 2026-05-06 15:29 | 13.39354 | 121.82214 | 23007 ft | 352 kts | 324° |
| 2026-05-06 15:29 | 13.41364 | 121.80778 | 22947 ft | 353 kts | 324° |
| 2026-05-06 15:30 | 13.43384 | 121.79335 | 22709 ft | 352 kts | 324° |
| 2026-05-06 15:30 | 13.45394 | 121.77899 | 22459 ft | 350 kts | 324° |
| 2026-05-06 15:30 | 13.47379 | 121.76479 | 22211 ft | 349 kts | 324° |
| 2026-05-06 15:30 | 13.49389 | 121.75043 | 21960 ft | 348 kts | 324° |
| 2026-05-06 15:31 | 13.51365 | 121.73628 | 21712 ft | 347 kts | 324° |
| 2026-05-06 15:31 | 13.53354 | 121.72205 | 21461 ft | 346 kts | 324° |
| 2026-05-06 15:31 | 13.55315 | 121.70801 | 21213 ft | 344 kts | 324° |
| 2026-05-06 15:32 | 13.59259 | 121.67977 | 20711 ft | 342 kts | 324° |
| 2026-05-06 15:32 | 13.61203 | 121.66585 | 20463 ft | 341 kts | 324° |
| 2026-05-06 15:32 | 13.63155 | 121.65176 | 20211 ft | 339 kts | 321° |
| 2026-05-06 15:32 | 13.64786 | 121.63482 | 19956 ft | 337 kts | 304° |
| 2026-05-06 15:33 | 13.65855 | 121.61338 | 19704 ft | 334 kts | 287° |
| 2026-05-06 15:33 | 13.66260 | 121.59021 | 19456 ft | 332 kts | 270° |
| 2026-05-06 15:33 | 13.66009 | 121.56681 | 19207 ft | 331 kts | 254° |
| 2026-05-06 15:33 | 13.65142 | 121.54498 | 18962 ft | 329 kts | 242° |
| 2026-05-06 15:34 | 13.64053 | 121.52440 | 18714 ft | 328 kts | 241° |
| 2026-05-06 15:34 | 13.62943 | 121.50382 | 18463 ft | 327 kts | 241° |
| 2026-05-06 15:34 | 13.61862 | 121.48354 | 18215 ft | 326 kts | 241° |
| 2026-05-06 15:34 | 13.60786 | 121.46310 | 17965 ft | 324 kts | 242° |
| 2026-05-06 15:35 | 13.59754 | 121.44224 | 17707 ft | 323 kts | 249° |
| 2026-05-06 15:35 | 13.59289 | 121.42017 | 17456 ft | 320 kts | 267° |
| 2026-05-06 15:35 | 13.59514 | 121.39759 | 17207 ft | 320 kts | 285° |
| 2026-05-06 15:35 | 13.60402 | 121.37659 | 16956 ft | 320 kts | 302° |
| 2026-05-06 15:36 | 13.61847 | 121.35949 | 16707 ft | 320 kts | 320° |
| 2026-05-06 15:36 | 13.63638 | 121.34567 | 16463 ft | 319 kts | 323° |
| 2026-05-06 15:36 | 13.65457 | 121.33243 | 16213 ft | 318 kts | 324° |
| 2026-05-06 15:36 | 13.67265 | 121.31928 | 15963 ft | 317 kts | 323° |
| 2026-05-06 15:37 | 13.69047 | 121.30621 | 15715 ft | 316 kts | 323° |
| 2026-05-06 15:37 | 13.70846 | 121.29293 | 15464 ft | 315 kts | 323° |
| 2026-05-06 15:37 | 13.72602 | 121.27992 | 15217 ft | 314 kts | 323° |
| 2026-05-06 15:37 | 13.74372 | 121.26675 | 14967 ft | 312 kts | 323° |
| 2026-05-06 15:38 | 13.76145 | 121.25356 | 14716 ft | 311 kts | 323° |
| 2026-05-06 15:38 | 13.77887 | 121.24057 | 14468 ft | 310 kts | 323° |
| 2026-05-06 15:38 | 13.79636 | 121.22753 | 14219 ft | 309 kts | 323° |
| 2026-05-06 15:38 | 13.81365 | 121.21463 | 13971 ft | 308 kts | 323° |
| 2026-05-06 15:39 | 13.83101 | 121.20167 | 13721 ft | 307 kts | 323° |
| 2026-05-06 15:39 | 13.84843 | 121.18868 | 13469 ft | 306 kts | 323° |
| 2026-05-06 15:39 | 13.86549 | 121.17594 | 13222 ft | 304 kts | 323° |
| 2026-05-06 15:39 | 13.88273 | 121.16306 | 12971 ft | 303 kts | 323° |
| 2026-05-06 15:40 | 13.89974 | 121.15035 | 12722 ft | 302 kts | 323° |
| 2026-05-06 15:40 | 13.91668 | 121.13769 | 12473 ft | 301 kts | 323° |
| 2026-05-06 15:40 | 13.93371 | 121.12496 | 12222 ft | 300 kts | 323° |
| 2026-05-06 15:40 | 13.95044 | 121.11246 | 11975 ft | 299 kts | 323° |
| 2026-05-06 15:41 | 13.96743 | 121.09975 | 11723 ft | 298 kts | 323° |
| 2026-05-06 15:41 | 13.98420 | 121.08722 | 11473 ft | 297 kts | 323° |
| 2026-05-06 15:41 | 14.00069 | 121.07489 | 11226 ft | 296 kts | 323° |
| 2026-05-06 15:41 | 14.01747 | 121.06235 | 11064 ft | 294 kts | 323° |
| 2026-05-06 15:42 | 14.03399 | 121.05001 | 11059 ft | 295 kts | 323° |
| 2026-05-06 15:42 | 14.05072 | 121.03751 | 11057 ft | 295 kts | 323° |
| 2026-05-06 15:42 | 14.06732 | 121.02509 | 11056 ft | 295 kts | 323° |
| 2026-05-06 15:42 | 14.08385 | 121.01272 | 11056 ft | 295 kts | 323° |
| 2026-05-06 15:43 | 14.10046 | 121.00028 | 11056 ft | 295 kts | 323° |
| 2026-05-06 15:43 | 14.11720 | 120.98774 | 11005 ft | 296 kts | 323° |
| 2026-05-06 15:43 | 14.13374 | 120.97535 | 10758 ft | 294 kts | 323° |
| 2026-05-06 15:43 | 14.15037 | 120.96290 | 10507 ft | 292 kts | 323° |
| 2026-05-06 15:44 | 14.16671 | 120.95072 | 10268 ft | 290 kts | 324° |
| 2026-05-06 15:44 | 14.18376 | 120.93958 | 9998 ft | 285 kts | 329° |
| 2026-05-06 15:44 | 14.20065 | 120.92950 | 9800 ft | 277 kts | 329° |
| 2026-05-06 15:44 | 14.21715 | 120.91978 | 9636 ft | 268 kts | 329° |
| 2026-05-06 15:45 | 14.23329 | 120.91027 | 9510 ft | 266 kts | 329° |
| 2026-05-06 15:45 | 14.24904 | 120.90089 | 9346 ft | 259 kts | 327° |
| 2026-05-06 15:45 | 14.26165 | 120.88811 | 9123 ft | 250 kts | 294° |
| 2026-05-06 15:45 | 14.26501 | 120.87102 | 8942 ft | 240 kts | 263° |
| 2026-05-06 15:46 | 14.25994 | 120.85510 | 8819 ft | 236 kts | 240° |
| 2026-05-06 15:46 | 14.25153 | 120.84064 | 8689 ft | 236 kts | 238° |
| 2026-05-06 15:46 | 14.24300 | 120.82608 | 8548 ft | 236 kts | 239° |
| 2026-05-06 15:46 | 14.23474 | 120.81163 | 8406 ft | 235 kts | 239° |
| 2026-05-06 15:47 | 14.22654 | 120.79706 | 8241 ft | 235 kts | 240° |
| 2026-05-06 15:47 | 14.21890 | 120.78210 | 7990 ft | 235 kts | 252° |
| 2026-05-06 15:47 | 14.21838 | 120.76552 | 7693 ft | 233 kts | 287° |
| 2026-05-06 15:47 | 14.22642 | 120.75156 | 7469 ft | 229 kts | 317° |
| 2026-05-06 15:48 | 14.23955 | 120.74264 | 7259 ft | 223 kts | 331° |
| 2026-05-06 15:48 | 14.25314 | 120.73508 | 7025 ft | 220 kts | 331° |
| 2026-05-06 15:48 | 14.26653 | 120.72756 | 6791 ft | 216 kts | 330° |
| 2026-05-06 15:48 | 14.27955 | 120.72012 | 6563 ft | 212 kts | 330° |
| 2026-05-06 15:49 | 14.29233 | 120.71270 | 6338 ft | 209 kts | 330° |
| 2026-05-06 15:49 | 14.30491 | 120.70542 | 6088 ft | 206 kts | 333° |
| 2026-05-06 15:49 | 14.31884 | 120.70200 | 5792 ft | 206 kts | 6° |
| 2026-05-06 15:49 | 14.33228 | 120.70661 | 5508 ft | 205 kts | 36° |
| 2026-05-06 15:50 | 14.34169 | 120.71723 | 5233 ft | 203 kts | 60° |
| 2026-05-06 15:50 | 14.34856 | 120.72987 | 4988 ft | 202 kts | 62° |
| 2026-05-06 15:50 | 14.35527 | 120.74262 | 4747 ft | 202 kts | 62° |
| 2026-05-06 15:50 | 14.36212 | 120.75539 | 4508 ft | 201 kts | 61° |
| 2026-05-06 15:51 | 14.36898 | 120.76795 | 4274 ft | 200 kts | 61° |
| 2026-05-06 15:51 | 14.37579 | 120.78031 | 4046 ft | 200 kts | 61° |
| 2026-05-06 15:51 | 14.38272 | 120.79282 | 3816 ft | 199 kts | 61° |
| 2026-05-06 15:51 | 14.38954 | 120.80510 | 3594 ft | 198 kts | 61° |
| 2026-05-06 15:52 | 14.39642 | 120.81747 | 3374 ft | 197 kts | 61° |
| 2026-05-06 15:52 | 14.40323 | 120.82971 | 3302 ft | 200 kts | 61° |
| 2026-05-06 15:52 | 14.41026 | 120.84235 | 3199 ft | 201 kts | 61° |
| 2026-05-06 15:52 | 14.41723 | 120.85489 | 3081 ft | 201 kts | 61° |
| 2026-05-06 15:53 | 14.42417 | 120.86738 | 2958 ft | 201 kts | 61° |
| 2026-05-06 15:53 | 14.43107 | 120.87978 | 2779 ft | 202 kts | 61° |
| 2026-05-06 15:53 | 14.43812 | 120.89243 | 2473 ft | 203 kts | 60° |
| 2026-05-06 15:53 | 14.44512 | 120.90492 | 2294 ft | 196 kts | 60° |
| 2026-05-06 15:54 | 14.45196 | 120.91720 | 1960 ft | 196 kts | 61° |
| 2026-05-06 15:54 | 14.45864 | 120.92924 | 1691 ft | 191 kts | 61° |
| 2026-05-06 15:54 | 14.46518 | 120.94105 | 1447 ft | 186 kts | 61° |
| 2026-05-06 15:54 | 14.47140 | 120.95225 | 1222 ft | 176 kts | 61° |
| 2026-05-06 15:55 | 14.47726 | 120.96281 | 975 ft | 162 kts | 61° |
| 2026-05-06 15:55 | 14.48272 | 120.97264 | 740 ft | 153 kts | 61° |
| 2026-05-06 15:55 | 14.48795 | 120.98207 | 510 ft | 144 kts | 61° |
| 2026-05-06 15:55 | 14.49278 | 120.99078 | 335 ft | 137 kts | 61° |
| 2026-05-06 15:56 | 14.49743 | 120.99926 | 144 ft | 135 kts | 62° |
| 2026-05-06 15:56 | 14.50171 | 121.00719 | 84 ft | 110 kts | 62° |
| 2026-05-06 15:56 | 14.50438 | 121.01189 | 84 ft | 44 kts | 62° |
| 2026-05-06 15:56 | 14.50577 | 121.01444 | 84 ft | 33 kts | 62° |
| 2026-05-06 15:57 | 14.50679 | 121.01627 | 84 ft | 28 kts | 51° |
| 2026-05-06 15:57 | 14.50819 | 121.01763 | 84 ft | 26 kts | 39° |
| 2026-05-06 15:57 | 14.50911 | 121.01765 | 84 ft | 6 kts | 323° |
| 2026-05-06 15:57 | 14.50946 | 121.01734 | 84 ft | 5 kts | 314° |
| 2026-05-06 15:58 | 14.50955 | 121.01697 | 84 ft | 6 kts | 256° |
| 2026-05-06 15:58 | 14.50943 | 121.01662 | 84 ft | 0 kts | 249° |
| 2026-05-06 16:00 | 14.50885 | 121.01559 | 84 ft | 28 kts | 239° |
| 2026-05-06 16:00 | 14.50846 | 121.01432 | 84 ft | 16 kts | 300° |
| 2026-05-06 16:00 | 14.50915 | 121.01413 | 84 ft | 4 kts | 340° |
| 2026-05-06 16:01 | 14.50921 | 121.01409 | 84 ft | 0 kts | 324° |